Winona, Texas
Current Conditions -  °F | °C
As of 1:53 AM on Thursday 27 Nov 2014 (Local Time) from KTYR Reporting Station
Clear Clear  
Wind Chill: 43°   Ceiling: Unl
Heat Index: 47°   Visibility: 10mi
Dew Point: 29°   Wind: 8mph
Humidity: 50%   Direction: 360°N
Pressure: 30.4"   Gusts: NA
Location:  32.49°N, 95.17°W
Report Text: KTYR 270753Z 36007KT 10SM CLR 08/M02 A3040 RMK AO2 SLP292 T00831017
Loading
Personal Weather Stations






























Interactive Weather Map New forecast layout! Learn more

10-Day Weather Forecast

Advertisements
Track Severe Weather on mobile